createdAt,value
2023-05-21T00:00:37.780Z,14.18
2023-05-21T00:03:05.464Z,14.19
2023-05-21T00:05:32.993Z,14.23
2023-05-21T00:08:00.570Z,14.26
2023-05-21T00:10:27.051Z,14.25
2023-05-21T00:12:53.570Z,14.25
2023-05-21T00:15:20.031Z,14.23
2023-05-21T00:17:46.516Z,14.22
2023-05-21T00:20:13.511Z,14.21
2023-05-21T00:22:40.400Z,14.20
2023-05-21T00:25:06.878Z,14.19
2023-05-21T00:27:33.308Z,14.20
2023-05-21T00:29:59.802Z,14.18
2023-05-21T00:32:26.316Z,14.15
2023-05-21T00:34:53.005Z,14.14
2023-05-21T00:37:20.598Z,14.11
2023-05-21T00:39:47.258Z,14.11
2023-05-21T00:42:13.710Z,14.10
2023-05-21T00:44:40.186Z,14.04
2023-05-21T00:47:07.024Z,14.00
2023-05-21T00:49:33.631Z,13.95
2023-05-21T00:52:00.183Z,13.89
2023-05-21T00:54:26.677Z,13.86
2023-05-21T00:56:53.400Z,13.80
2023-05-21T00:59:20.048Z,13.77
2023-05-21T01:01:47.616Z,13.73
2023-05-21T01:04:14.200Z,13.69
2023-05-21T01:06:40.652Z,13.65
2023-05-21T01:09:07.415Z,13.61
2023-05-21T01:11:33.992Z,13.55
2023-05-21T01:14:01.513Z,13.54
2023-05-21T01:16:30.152Z,13.52
2023-05-21T01:18:57.760Z,13.47
2023-05-21T01:21:25.325Z,13.51
2023-05-21T01:23:52.141Z,13.44
2023-05-21T01:26:18.607Z,13.42
2023-05-21T01:28:46.059Z,13.42
2023-05-21T01:31:12.585Z,13.42
2023-05-21T01:33:39.201Z,13.43
2023-05-21T01:36:06.838Z,13.38
2023-05-21T01:38:33.435Z,13.42
2023-05-21T01:41:01.028Z,13.46
2023-05-21T01:43:27.547Z,13.47
2023-05-21T01:45:54.235Z,13.46
2023-05-21T01:48:20.726Z,13.49
2023-05-21T01:50:47.180Z,13.54
2023-05-21T01:53:13.659Z,13.57
2023-05-21T01:55:40.550Z,13.60
2023-05-21T01:58:07.053Z,13.61
2023-05-21T02:00:33.719Z,13.61
2023-05-21T02:03:00.369Z,13.61
2023-05-21T02:05:27.963Z,13.60
2023-05-21T02:07:54.436Z,13.61
2023-05-21T02:10:20.915Z,13.58
2023-05-21T02:12:47.386Z,13.57
2023-05-21T02:15:13.854Z,13.58
2023-05-21T02:17:40.364Z,13.54
2023-05-21T02:20:06.837Z,13.54
2023-05-21T02:22:33.316Z,13.56
2023-05-21T02:24:59.749Z,13.55
2023-05-21T02:27:26.201Z,13.52
2023-05-21T02:29:52.775Z,13.49
2023-05-21T02:32:19.223Z,13.52
2023-05-21T02:34:45.656Z,13.57
2023-05-21T02:37:12.168Z,13.59
2023-05-21T02:39:38.689Z,13.59
2023-05-21T02:42:05.213Z,13.59
2023-05-21T02:44:32.366Z,13.59
2023-05-21T02:46:58.844Z,13.60
2023-05-21T02:49:25.298Z,13.58
2023-05-21T02:51:51.792Z,13.58
2023-05-21T02:54:18.242Z,13.58
2023-05-21T02:56:44.705Z,13.56
2023-05-21T02:59:11.175Z,13.54
2023-05-21T03:01:37.710Z,13.53
2023-05-21T03:04:04.424Z,13.52
2023-05-21T03:06:31.641Z,13.51
2023-05-21T03:08:59.248Z,13.53
2023-05-21T03:11:25.821Z,13.53
2023-05-21T03:13:53.414Z,13.54
2023-05-21T03:16:19.924Z,13.56
2023-05-21T03:18:46.638Z,13.58
2023-05-21T03:21:13.212Z,13.57
2023-05-21T03:23:41.781Z,13.58
2023-05-21T03:26:08.252Z,13.59
2023-05-21T03:28:34.705Z,13.55
2023-05-21T03:31:01.208Z,13.53
2023-05-21T03:33:27.709Z,13.50
2023-05-21T03:35:54.767Z,13.51
2023-05-21T03:38:22.341Z,13.51
2023-05-21T03:40:48.934Z,13.53
2023-05-21T03:43:15.524Z,13.54
2023-05-21T03:45:44.540Z,13.57
2023-05-21T03:48:11.727Z,13.59
2023-05-21T03:50:38.345Z,13.61
2023-05-21T03:53:04.838Z,13.64
2023-05-21T03:55:31.313Z,13.67
2023-05-21T03:57:57.789Z,13.70
2023-05-21T04:00:24.634Z,13.75
2023-05-21T04:02:51.393Z,13.77
2023-05-21T04:05:17.923Z,13.75
2023-05-21T04:07:45.401Z,13.75
2023-05-21T04:10:13.028Z,13.73
2023-05-21T04:12:40.592Z,13.68
2023-05-21T04:15:07.188Z,13.63
2023-05-21T04:17:33.796Z,13.61
2023-05-21T04:20:00.322Z,13.51
2023-05-21T04:22:27.977Z,13.46
2023-05-21T04:24:55.523Z,13.42
2023-05-21T04:27:24.121Z,13.36
2023-05-21T04:29:50.849Z,13.38
2023-05-21T04:32:17.360Z,13.40
2023-05-21T04:34:44.897Z,13.42
2023-05-21T04:37:11.346Z,13.38
2023-05-21T04:39:37.792Z,13.38
2023-05-21T04:42:04.248Z,13.39
2023-05-21T04:44:30.690Z,13.39
2023-05-21T04:46:57.194Z,13.42
2023-05-21T04:49:23.685Z,13.46
2023-05-21T04:51:51.129Z,13.47
2023-05-21T04:54:18.701Z,13.49
2023-05-21T04:56:45.285Z,13.48
2023-05-21T04:59:11.797Z,13.45
2023-05-21T05:01:38.283Z,13.47
2023-05-21T05:04:05.099Z,13.55
2023-05-21T05:06:31.564Z,13.65
2023-05-21T05:08:58.219Z,13.67
2023-05-21T05:11:24.701Z,13.73
2023-05-21T05:13:51.208Z,13.77
2023-05-21T05:16:17.762Z,13.83
2023-05-21T05:18:44.237Z,13.92
2023-05-21T05:21:10.740Z,14.02
2023-05-21T05:23:37.235Z,14.10
2023-05-21T05:26:04.357Z,14.16
2023-05-21T05:28:30.822Z,14.20
2023-05-21T05:30:57.322Z,14.26
2023-05-21T05:33:24.182Z,14.30
2023-05-21T05:35:51.732Z,14.25
2023-05-21T05:38:18.253Z,14.23
2023-05-21T05:40:44.791Z,14.24
2023-05-21T05:43:11.249Z,14.29
2023-05-21T05:45:38.678Z,14.41
2023-05-21T05:48:05.463Z,14.49
2023-05-21T05:50:32.003Z,14.59
2023-05-21T05:52:58.457Z,14.64
2023-05-21T05:55:24.942Z,14.69
2023-05-21T05:57:51.415Z,14.72
2023-05-21T06:00:18.733Z,14.75
2023-05-21T06:02:45.419Z,14.74
2023-05-21T06:05:12.918Z,14.78
2023-05-21T06:07:39.417Z,14.83
2023-05-21T06:10:06.073Z,14.92
2023-05-21T06:12:32.513Z,15.01
2023-05-21T06:14:59.262Z,14.98
2023-05-21T06:17:25.923Z,15.03
2023-05-21T06:19:53.462Z,14.96
2023-05-21T06:22:20.041Z,15.02
2023-05-21T06:24:46.536Z,15.13
2023-05-21T06:27:13.230Z,15.28
2023-05-21T06:29:39.723Z,15.42
2023-05-21T06:32:06.238Z,15.57
2023-05-21T06:34:32.685Z,15.66
2023-05-21T06:36:59.172Z,15.72
2023-05-21T06:39:26.212Z,15.78
2023-05-21T06:41:52.725Z,15.79
2023-05-21T06:44:19.203Z,15.79
2023-05-21T06:46:45.721Z,15.79
2023-05-21T06:49:14.146Z,15.77
2023-05-21T06:51:40.843Z,15.77
2023-05-21T06:54:07.287Z,15.77
2023-05-21T06:56:34.343Z,15.76
2023-05-21T06:59:00.931Z,15.82
2023-05-21T07:01:28.655Z,15.91
2023-05-21T07:03:56.140Z,16.01
2023-05-21T07:06:23.717Z,16.12
2023-05-21T07:08:50.294Z,16.20
2023-05-21T07:11:16.751Z,16.26
2023-05-21T07:13:43.249Z,16.28
2023-05-21T07:16:09.819Z,16.31
2023-05-21T07:18:36.409Z,16.33
2023-05-21T07:21:04.283Z,16.35
2023-05-21T07:23:31.885Z,16.36
2023-05-21T07:26:00.654Z,16.35
2023-05-21T07:28:28.086Z,16.34
2023-05-21T07:30:55.707Z,16.34
2023-05-21T07:33:22.264Z,16.34
2023-05-21T07:35:48.751Z,16.35
2023-05-21T07:38:15.433Z,16.35
2023-05-21T07:40:43.033Z,16.29
2023-05-21T07:43:09.541Z,16.31
2023-05-21T07:45:36.402Z,16.34
2023-05-21T07:48:03.866Z,16.39
2023-05-21T07:50:30.605Z,16.48
2023-05-21T07:52:57.108Z,16.53
2023-05-21T07:55:23.597Z,16.64
2023-05-21T07:57:50.355Z,16.73
2023-05-21T08:00:18.957Z,16.81
2023-05-21T08:02:45.637Z,16.87
2023-05-21T08:05:12.264Z,16.92
2023-05-21T08:07:38.777Z,16.97
2023-05-21T08:10:05.251Z,17.02
2023-05-21T08:12:31.770Z,17.03
2023-05-21T08:14:58.251Z,17.09
2023-05-21T08:17:25.133Z,17.28
2023-05-21T08:19:52.725Z,17.59
2023-05-21T08:22:19.186Z,17.88
2023-05-21T08:24:45.960Z,18.06
2023-05-21T08:27:12.954Z,18.13
2023-05-21T08:29:39.442Z,18.20
2023-05-21T08:32:06.786Z,18.42
2023-05-21T08:34:33.339Z,18.50
2023-05-21T08:37:00.838Z,18.62
2023-05-21T08:39:28.410Z,18.80
2023-05-21T08:41:57.228Z,19.12
2023-05-21T08:44:24.605Z,19.35
2023-05-21T08:46:51.183Z,19.53
2023-05-21T08:49:17.633Z,19.75
2023-05-21T08:51:45.372Z,19.87
2023-05-21T08:54:11.976Z,20.01
2023-05-21T08:56:38.587Z,20.03
2023-05-21T08:59:05.094Z,20.16
2023-05-21T09:01:32.794Z,20.35
2023-05-21T09:04:12.185Z,20.45
2023-05-21T09:06:47.007Z,20.56
2023-05-21T09:09:13.488Z,20.62
2023-05-21T09:11:40.231Z,20.69
2023-05-21T09:14:06.732Z,20.78
2023-05-21T09:16:33.521Z,20.89
2023-05-21T09:19:03.764Z,20.93
2023-05-21T09:21:31.002Z,20.99
2023-05-21T09:23:58.286Z,21.07
2023-05-21T09:26:25.910Z,21.12
2023-05-21T09:28:53.457Z,21.16
2023-05-21T09:31:19.948Z,21.06
2023-05-21T09:33:46.422Z,20.97
2023-05-21T09:36:12.969Z,20.97
2023-05-21T09:38:39.457Z,21.01
2023-05-21T09:41:05.953Z,21.06
2023-05-21T09:43:32.477Z,21.06
2023-05-21T09:46:01.321Z,21.11
2023-05-21T09:48:29.194Z,21.02
2023-05-21T09:50:55.650Z,21.02
2023-05-21T09:53:22.112Z,21.02
2023-05-21T09:55:48.580Z,20.99
2023-05-21T09:58:15.057Z,21.05
2023-05-21T10:00:41.533Z,21.07
2023-05-21T10:03:08.024Z,21.14
2023-05-21T10:05:34.568Z,21.17
2023-05-21T10:08:02.003Z,21.09
2023-05-21T10:10:29.533Z,21.12
2023-05-21T10:12:56.064Z,21.20
2023-05-21T10:15:22.555Z,21.28
2023-05-21T10:17:49.276Z,21.33
2023-05-21T10:20:17.870Z,21.38
2023-05-21T10:22:45.463Z,21.44
2023-05-21T10:25:13.040Z,21.51
2023-05-21T10:27:39.508Z,21.55
2023-05-21T10:30:05.950Z,21.56
2023-05-21T10:32:32.561Z,21.52
2023-05-21T10:35:01.329Z,21.56
2023-05-21T10:37:28.274Z,21.61
2023-05-21T10:39:55.671Z,21.61
2023-05-21T10:42:22.668Z,21.63
2023-05-21T10:44:49.125Z,21.63
2023-05-21T10:47:15.576Z,21.53
2023-05-21T10:49:42.102Z,21.51
2023-05-21T10:52:08.588Z,21.39
2023-05-21T10:54:35.070Z,21.35
2023-05-21T10:57:01.600Z,21.47
2023-05-21T10:59:29.393Z,21.61
2023-05-21T11:01:57.978Z,21.75
2023-05-21T11:04:24.469Z,21.86
2023-05-21T11:06:51.162Z,21.96
2023-05-21T11:09:17.755Z,22.05
2023-05-21T11:11:44.757Z,22.13
2023-05-21T11:14:11.238Z,22.19
2023-05-21T11:16:37.792Z,22.20
2023-05-21T11:19:04.425Z,22.22
2023-05-21T11:21:31.051Z,22.20
2023-05-21T11:23:58.337Z,22.21
2023-05-21T11:26:25.918Z,22.27
2023-05-21T11:28:53.508Z,22.35
2023-05-21T11:31:21.135Z,22.38
2023-05-21T11:33:48.710Z,22.36
2023-05-21T11:36:15.294Z,22.37
2023-05-21T11:38:41.776Z,22.41
2023-05-21T11:41:08.235Z,22.39
2023-05-21T11:43:35.054Z,22.40
2023-05-21T11:46:01.628Z,22.46
2023-05-21T11:48:29.399Z,22.52
2023-05-21T11:50:56.992Z,22.56
2023-05-21T11:53:24.438Z,22.58
2023-05-21T11:55:50.921Z,22.56
2023-05-21T11:58:17.433Z,22.56
2023-05-21T12:00:43.850Z,22.58
2023-05-21T12:03:10.533Z,22.60
2023-05-21T12:05:37.410Z,22.60
2023-05-21T12:08:03.988Z,22.58
2023-05-21T12:10:30.855Z,22.58
2023-05-21T12:12:58.157Z,22.63
2023-05-21T12:15:24.868Z,22.58
2023-05-21T12:17:52.371Z,22.53
2023-05-21T12:20:19.951Z,22.50
2023-05-21T12:22:46.523Z,22.53
2023-05-21T12:25:13.016Z,22.57
2023-05-21T12:27:39.704Z,22.63
2023-05-21T12:30:07.282Z,22.65
2023-05-21T12:32:33.756Z,22.68
2023-05-21T12:35:00.482Z,22.70
2023-05-21T12:37:26.985Z,22.70
2023-05-21T12:39:53.458Z,22.73
2023-05-21T12:42:19.917Z,22.69
2023-05-21T12:44:46.805Z,22.69
2023-05-21T12:47:13.293Z,22.75
2023-05-21T12:49:39.798Z,22.78
2023-05-21T12:52:06.287Z,22.81
2023-05-21T12:54:32.745Z,22.81
2023-05-21T12:56:59.181Z,22.84
2023-05-21T12:59:25.642Z,22.88
2023-05-21T13:01:52.132Z,22.95
2023-05-21T13:04:19.625Z,22.95
2023-05-21T13:06:47.161Z,22.92
2023-05-21T13:09:15.731Z,22.88
2023-05-21T13:11:44.328Z,22.93
2023-05-21T13:14:11.934Z,22.99
2023-05-21T13:16:40.510Z,23.06
2023-05-21T13:19:07.059Z,23.11
2023-05-21T13:21:34.719Z,23.15
2023-05-21T13:24:01.230Z,23.20
2023-05-21T13:26:27.854Z,23.28
2023-05-21T13:28:54.689Z,23.31
2023-05-21T13:31:21.185Z,23.37
2023-05-21T13:33:48.659Z,23.40
2023-05-21T13:36:16.220Z,23.43
2023-05-21T13:38:42.822Z,23.40
2023-05-21T13:41:09.401Z,23.43
2023-05-21T13:43:35.973Z,23.45
2023-05-21T13:46:03.590Z,23.49
2023-05-21T13:48:31.162Z,23.50
2023-05-21T13:50:58.747Z,23.55
2023-05-21T13:53:25.369Z,23.59
2023-05-21T13:55:51.972Z,23.53
2023-05-21T13:58:19.547Z,23.59
2023-05-21T14:00:46.162Z,23.61
2023-05-21T14:03:12.753Z,23.66
2023-05-21T14:05:40.338Z,23.71
2023-05-21T14:08:06.909Z,23.72
2023-05-21T14:10:33.677Z,23.75
2023-05-21T14:13:07.829Z,23.77
2023-05-21T14:15:42.156Z,23.80
2023-05-21T14:18:08.643Z,23.80
2023-05-21T14:20:36.025Z,23.82
2023-05-21T14:23:02.500Z,23.82
2023-05-21T14:25:29.196Z,23.83
2023-05-21T14:27:56.776Z,23.86
2023-05-21T14:30:23.234Z,23.93
2023-05-21T14:32:49.730Z,24.00
2023-05-21T14:35:16.186Z,24.05
2023-05-21T14:37:42.637Z,24.07
2023-05-21T14:40:09.788Z,24.13
2023-05-21T14:42:36.367Z,24.16
2023-05-21T14:45:17.553Z,24.20
2023-05-21T14:47:45.049Z,24.23
2023-05-21T14:50:11.544Z,24.27
2023-05-21T14:52:39.774Z,24.34
2023-05-21T14:55:06.311Z,24.54
2023-05-21T14:57:32.945Z,24.66
2023-05-21T15:00:01.546Z,24.56
2023-05-21T15:02:29.215Z,24.43
2023-05-21T15:04:56.735Z,24.34
2023-05-21T15:07:23.225Z,24.25
2023-05-21T15:09:49.924Z,24.20
2023-05-21T15:12:16.761Z,24.17
2023-05-21T15:14:43.242Z,24.10
2023-05-21T15:17:09.720Z,24.02
2023-05-21T15:19:36.275Z,23.96
2023-05-21T15:22:02.818Z,23.89
2023-05-21T15:24:29.457Z,23.84
2023-05-21T15:26:55.948Z,23.78
2023-05-21T15:29:22.542Z,23.70
2023-05-21T15:31:49.005Z,23.69
2023-05-21T15:34:15.484Z,23.69
2023-05-21T15:36:41.965Z,23.76
2023-05-21T15:39:08.459Z,23.83
2023-05-21T15:41:35.606Z,23.85
2023-05-21T15:44:02.050Z,23.86
2023-05-21T15:46:28.834Z,23.85
2023-05-21T15:48:57.403Z,23.86
2023-05-21T15:51:23.992Z,23.87
2023-05-21T15:53:50.489Z,23.90
2023-05-21T15:56:17.165Z,23.90
2023-05-21T15:58:44.809Z,23.93
2023-05-21T16:01:11.340Z,23.93
2023-05-21T16:03:37.902Z,23.92
2023-05-21T16:06:05.521Z,23.93
2023-05-21T16:08:34.125Z,23.98
2023-05-21T16:11:00.625Z,23.98
2023-05-21T16:13:27.325Z,24.04
2023-05-21T16:15:53.755Z,23.98
2023-05-21T16:18:20.520Z,23.90
2023-05-21T16:20:47.011Z,23.86
2023-05-21T16:23:13.442Z,23.83
2023-05-21T16:25:40.149Z,23.77
2023-05-21T16:28:06.865Z,23.63
2023-05-21T16:30:34.516Z,23.58
2023-05-21T16:33:02.104Z,23.48
2023-05-21T16:35:28.673Z,23.61
2023-05-21T16:37:56.276Z,23.73
2023-05-21T16:40:23.868Z,23.76
2023-05-21T16:42:51.447Z,23.72
2023-05-21T16:45:19.063Z,23.75
2023-05-21T16:47:45.675Z,23.68
2023-05-21T16:50:13.228Z,23.61
2023-05-21T16:52:39.700Z,23.52
2023-05-21T16:55:07.404Z,23.51
2023-05-21T16:57:34.002Z,23.49
2023-05-21T17:00:00.709Z,23.45
2023-05-21T17:02:28.302Z,23.42
2023-05-21T17:04:55.776Z,23.37
2023-05-21T17:07:22.242Z,23.37
2023-05-21T17:09:48.937Z,23.29
2023-05-21T17:12:16.602Z,23.28
2023-05-21T17:14:43.071Z,23.30
2023-05-21T17:17:09.729Z,23.32
2023-05-21T17:19:36.275Z,23.18
2023-05-21T17:22:02.902Z,23.01
2023-05-21T17:24:29.390Z,22.94
2023-05-21T17:26:55.867Z,22.76
2023-05-21T17:29:22.324Z,22.68
2023-05-21T17:31:49.271Z,22.51
2023-05-21T17:34:16.818Z,22.41
2023-05-21T17:36:44.426Z,22.34
2023-05-21T17:39:10.999Z,22.21
2023-05-21T17:41:37.427Z,22.10
2023-05-21T17:44:04.206Z,22.04
2023-05-21T17:46:31.830Z,22.04
2023-05-21T17:48:58.365Z,22.12
2023-05-21T17:51:28.048Z,22.04
2023-05-21T17:53:55.595Z,21.99
2023-05-21T17:56:22.041Z,21.97
2023-05-21T17:58:48.847Z,21.92
2023-05-21T18:01:16.469Z,21.85
2023-05-21T18:03:43.158Z,21.79
2023-05-21T18:06:10.691Z,21.73
2023-05-21T18:08:37.215Z,21.66
2023-05-21T18:11:03.884Z,21.50
2023-05-21T18:13:30.454Z,21.40
2023-05-21T18:15:56.934Z,21.25
2023-05-21T18:18:23.406Z,21.24
2023-05-21T18:20:50.248Z,21.19
2023-05-21T18:23:16.791Z,21.26
2023-05-21T18:25:43.447Z,21.36
2023-05-21T18:28:12.008Z,21.28
2023-05-21T18:30:40.599Z,21.15
2023-05-21T18:33:07.162Z,21.12
2023-05-21T18:35:33.704Z,21.09
2023-05-21T18:38:00.397Z,21.08
2023-05-21T18:40:33.743Z,21.01
2023-05-21T18:43:00.365Z,21.03
2023-05-21T18:45:28.186Z,20.95
2023-05-21T18:47:54.820Z,20.96
2023-05-21T18:50:21.726Z,21.02
2023-05-21T18:52:48.975Z,20.97
2023-05-21T18:55:15.575Z,20.86
2023-05-21T18:57:42.426Z,20.86
2023-05-21T19:00:08.891Z,20.87
2023-05-21T19:02:36.371Z,20.88
2023-05-21T19:05:02.949Z,20.93
2023-05-21T19:07:30.557Z,20.97
2023-05-21T19:09:57.219Z,20.96
2023-05-21T19:12:23.714Z,21.05
2023-05-21T19:14:50.479Z,20.89
2023-05-21T19:17:17.990Z,20.86
2023-05-21T19:19:44.460Z,20.81
2023-05-21T19:22:10.935Z,20.78
2023-05-21T19:24:37.409Z,20.78
2023-05-21T19:27:03.872Z,20.71
2023-05-21T19:29:30.358Z,20.53
2023-05-21T19:31:56.822Z,20.26
2023-05-21T19:34:23.353Z,19.87
2023-05-21T19:36:53.516Z,19.51
2023-05-21T19:39:20.533Z,18.98
2023-05-21T19:41:47.046Z,17.98
2023-05-21T19:44:13.503Z,16.94
2023-05-21T19:46:39.946Z,16.45
2023-05-21T19:49:06.399Z,16.03
2023-05-21T19:51:32.869Z,15.89
2023-05-21T19:53:59.330Z,15.67
2023-05-21T19:56:25.814Z,15.44
2023-05-21T19:58:52.725Z,15.38
2023-05-21T20:01:19.210Z,15.35
2023-05-21T20:03:45.773Z,15.32
2023-05-21T20:06:12.276Z,15.28
2023-05-21T20:08:38.714Z,15.30
2023-05-21T20:11:05.189Z,15.27
2023-05-21T20:13:31.658Z,15.30
2023-05-21T20:15:58.121Z,15.19
2023-05-21T20:18:24.576Z,14.83
2023-05-21T20:20:51.192Z,14.85
2023-05-21T20:23:17.775Z,14.67
2023-05-21T20:25:44.271Z,14.62
2023-05-21T20:28:10.782Z,14.53
2023-05-21T20:30:37.404Z,14.49
2023-05-21T20:33:03.997Z,14.45
2023-05-21T20:35:30.504Z,14.53
2023-05-21T20:37:56.931Z,14.44
2023-05-21T20:40:23.367Z,14.52
2023-05-21T20:42:49.893Z,14.52
2023-05-21T20:45:16.340Z,14.33
2023-05-21T20:47:42.916Z,14.25
2023-05-21T20:50:09.404Z,14.33
2023-05-21T20:52:35.841Z,14.36
2023-05-21T20:55:02.303Z,14.44
2023-05-21T20:57:28.755Z,14.46
2023-05-21T20:59:55.182Z,14.46
2023-05-21T21:02:21.726Z,14.44
2023-05-21T21:04:48.289Z,14.53
2023-05-21T21:07:14.768Z,14.59
2023-05-21T21:09:41.255Z,14.60
2023-05-21T21:12:24.134Z,14.70
2023-05-21T21:14:52.158Z,14.81
2023-05-21T21:17:18.602Z,14.87
2023-05-21T21:19:45.055Z,15.01
2023-05-21T21:22:11.522Z,14.86
2023-05-21T21:24:37.999Z,14.96
2023-05-21T21:27:04.419Z,14.95
2023-05-21T21:29:30.879Z,14.92
2023-05-21T21:31:57.338Z,15.01
2023-05-21T21:34:23.806Z,14.98
2023-05-21T21:36:50.251Z,15.03
2023-05-21T21:39:16.691Z,15.06
2023-05-21T21:41:43.139Z,14.91
2023-05-21T21:44:09.595Z,14.99
2023-05-21T21:46:36.129Z,14.90
2023-05-21T21:49:02.603Z,14.83
2023-05-21T21:51:29.064Z,14.87
2023-05-21T21:53:55.643Z,14.93
2023-05-21T21:56:22.118Z,14.95
2023-05-21T21:58:48.595Z,15.00
2023-05-21T22:01:15.105Z,15.06
2023-05-21T22:03:41.609Z,15.09
2023-05-21T22:06:08.063Z,15.12
2023-05-21T22:08:34.487Z,15.16
2023-05-21T22:11:00.941Z,15.17
2023-05-21T22:13:29.280Z,15.12
2023-05-21T22:15:56.427Z,15.15
2023-05-21T22:18:35.930Z,15.17
2023-05-21T22:21:06.457Z,15.15
2023-05-21T22:23:32.909Z,15.12
2023-05-21T22:25:59.361Z,15.13
2023-05-21T22:28:25.806Z,15.13
2023-05-21T22:30:52.259Z,15.12
2023-05-21T22:33:18.827Z,15.11
2023-05-21T22:35:45.314Z,15.11
2023-05-21T22:38:11.749Z,15.07
2023-05-21T22:40:38.436Z,15.10
2023-05-21T22:43:05.022Z,15.04
2023-05-21T22:45:31.464Z,15.06
2023-05-21T22:47:58.141Z,14.91
2023-05-21T22:50:24.574Z,14.90
2023-05-21T22:52:51.031Z,14.97
2023-05-21T22:55:17.488Z,15.01
2023-05-21T22:57:43.944Z,15.03
2023-05-21T23:00:10.394Z,15.04
2023-05-21T23:02:36.899Z,15.08
2023-05-21T23:05:03.502Z,15.10
2023-05-21T23:07:29.999Z,15.07
2023-05-21T23:09:56.482Z,15.08
2023-05-21T23:12:22.923Z,15.07
2023-05-21T23:14:49.376Z,15.08
2023-05-21T23:17:15.862Z,15.18
2023-05-21T23:19:42.365Z,15.13
2023-05-21T23:22:08.826Z,15.00
2023-05-21T23:24:35.264Z,14.89
2023-05-21T23:27:02.012Z,14.93
2023-05-21T23:29:29.846Z,14.84
2023-05-21T23:31:56.310Z,14.76
2023-05-21T23:34:22.774Z,14.72
2023-05-21T23:36:49.215Z,14.68
2023-05-21T23:39:15.677Z,14.79
2023-05-21T23:41:42.152Z,14.73
2023-05-21T23:44:08.900Z,14.62
2023-05-21T23:46:35.402Z,14.68
2023-05-21T23:49:01.891Z,14.71
2023-05-21T23:51:28.329Z,14.87
2023-05-21T23:53:54.764Z,14.89
2023-05-21T23:56:21.198Z,14.70
2023-05-21T23:58:47.641Z,14.56
